Time;durP1;ratioP1;P1;durP2;ratioP2;P2;SDS_P1;SDS_P2;PMS_P1;PMS_P2;Temp;Humidity;BMP_temperature;BMP_pressure;BME280_temperature;BME280_humidity;BME280_pressure;Samples;Min_cycle;Max_cycle;Signal;HPM_P1;HPM_P2
2022/10/24 00:02:14;;;;;;;1.98;0.90;;;;;;;12.15;100.00;99743.20;1704379;82;21070;-49
2022/10/24 00:04:41;;;;;;;1.40;0.90;;;;;;;12.14;100.00;99745.50;1707215;82;20986;-50
2022/10/24 00:07:07;;;;;;;0.90;0.82;;;;;;;12.16;100.00;99740.03;1709025;82;21038;-50
2022/10/24 00:09:35;;;;;;;4.83;0.70;;;;;;;12.15;100.00;99733.76;1705249;82;21065;-49
2022/10/24 00:12:02;;;;;;;1.57;0.80;;;;;;;12.15;100.00;99723.44;1705601;82;21325;-50
2022/10/24 00:14:29;;;;;;;0.90;0.72;;;;;;;12.12;100.00;99719.95;1704666;82;21387;-49
2022/10/24 00:16:57;;;;;;;1.00;0.80;;;;;;;12.11;100.00;99721.38;1700870;81;21407;-50
2022/10/24 00:19:25;;;;;;;0.90;0.80;;;;;;;12.09;100.00;99732.24;1701278;82;21051;-50
2022/10/24 00:21:51;;;;;;;0.80;0.70;;;;;;;12.11;100.00;99725.42;1702776;82;21940;-50
2022/10/24 00:24:18;;;;;;;2.25;0.70;;;;;;;12.09;100.00;99725.50;1696023;82;21038;-49
2022/10/24 00:26:44;;;;;;;0.80;0.70;;;;;;;12.08;100.00;99734.55;1666146;84;21055;-50
2022/10/24 00:29:10;;;;;;;1.45;0.60;;;;;;;12.08;100.00;99745.81;1667221;84;21589;-50
2022/10/24 00:31:37;;;;;;;1.10;0.70;;;;;;;12.07;100.00;99751.72;1671983;84;21151;-50
2022/10/24 00:34:04;;;;;;;0.80;0.70;;;;;;;12.05;100.00;99748.22;1662324;84;21841;-50
2022/10/24 00:36:30;;;;;;;3.37;0.70;;;;;;;12.03;100.00;99758.22;1701515;82;21632;-49
2022/10/24 00:38:57;;;;;;;1.42;0.70;;;;;;;12.01;100.00;99752.50;1703656;80;21073;-50
2022/10/24 00:41:28;;;;;;;0.80;0.70;;;;;;;11.99;100.00;99753.92;1701383;82;21303;-50
2022/10/24 00:44:24;;;;;;;0.93;0.60;;;;;;;11.98;100.00;99756.26;1702590;82;21667;-49
2022/10/24 00:47:07;;;;;;;1.85;0.80;;;;;;;11.96;100.00;99752.77;1701543;82;21844;-49
2022/10/24 00:49:50;;;;;;;0.70;0.60;;;;;;;11.95;100.00;99755.06;1699979;82;21524;-51
2022/10/24 00:52:23;;;;;;;1.90;0.72;;;;;;;11.95;100.00;99754.19;1699608;82;21133;-50
2022/10/24 00:54:50;;;;;;;1.35;0.93;;;;;;;11.94;100.00;99753.31;1704205;82;21248;-50
2022/10/24 00:57:22;;;;;;;3.10;0.80;;;;;;;11.94;100.00;99758.71;1689869;82;21080;-50
2022/10/24 00:59:54;;;;;;;1.00;0.65;;;;;;;11.94;100.00;99752.44;1702450;82;21782;-50
2022/10/24 01:02:20;;;;;;;2.37;0.72;;;;;;;11.96;100.00;99754.59;1705401;82;21077;-51
2022/10/24 01:04:47;;;;;;;2.30;0.80;;;;;;;11.97;100.00;99753.64;1699183;82;21623;-50
2022/10/24 01:07:31;;;;;;;1.00;0.78;;;;;;;11.98;100.00;99753.56;1674819;84;21080;-49
2022/10/24 01:10:22;;;;;;;4.58;0.93;;;;;;;11.99;100.00;99752.58;1699876;82;21087;-49
2022/10/24 01:13:17;;;;;;;3.30;1.30;;;;;;;12.01;100.00;99751.16;1703421;82;21325;-48
2022/10/24 01:16:06;;;;;;;2.52;0.88;;;;;;;12.00;100.00;99747.58;1666557;84;21575;-49
2022/10/24 01:18:49;;;;;;;2.80;0.70;;;;;;;12.00;100.00;99750.28;1714560;81;21037;-48
2022/10/24 01:21:33;;;;;;;4.35;0.95;;;;;;;12.02;100.00;99757.82;1678515;83;21017;-49
2022/10/24 01:24:48;;;;;;;3.70;0.90;;;;;;;12.01;100.00;99751.16;1676153;83;21087;-48
2022/10/24 01:27:41;;;;;;;1.60;0.85;;;;;;;12.01;100.00;99757.42;1677666;83;21799;-49
2022/10/24 01:30:12;;;;;;;1.87;0.90;;;;;;;12.01;100.00;99753.84;1643483;84;22494;-48
2022/10/24 01:32:56;;;;;;;1.27;0.95;;;;;;;12.00;100.00;99752.10;1660977;84;21089;-48
2022/10/24 01:35:44;;;;;;;2.77;1.15;;;;;;;12.00;100.00;99756.15;1657732;84;21102;-50
2022/10/24 01:38:43;;;;;;;1.67;1.07;;;;;;;11.97;100.00;99746.42;1659781;84;21331;-49
2022/10/24 01:41:18;;;;;;;2.35;1.10;;;;;;;11.97;100.00;99746.42;1659477;84;22714;-49
2022/10/24 01:44:01;;;;;;;1.65;1.00;;;;;;;11.96;100.00;99752.77;1659435;84;21413;-49
2022/10/24 01:46:29;;;;;;;2.00;1.10;;;;;;;11.93;100.00;99752.05;1656758;84;21753;-49
2022/10/24 01:49:03;;;;;;;4.42;1.52;;;;;;;11.93;100.00;99752.92;1660222;84;21544;-49
2022/10/24 01:51:30;;;;;;;1.80;1.35;;;;;;;11.93;100.00;99752.05;1659116;84;21113;-50
2022/10/24 01:53:57;;;;;;;3.33;1.42;;;;;;;11.94;100.00;99756.48;1658883;84;22833;-50
2022/10/24 01:56:25;;;;;;;1.57;0.98;;;;;;;11.93;100.00;99753.39;1662054;84;21082;-48
2022/10/24 01:58:51;;;;;;;4.60;1.15;;;;;;;11.94;100.00;99752.44;1682188;83;21463;-49
2022/10/24 02:01:21;;;;;;;1.20;0.90;;;;;;;11.91;100.00;99744.53;1681903;83;21095;-50
2022/10/24 02:03:52;;;;;;;2.90;1.20;;;;;;;11.91;100.00;99745.89;1682881;83;21351;-49
2022/10/24 02:06:31;;;;;;;1.52;1.00;;;;;;;11.90;100.00;99748.19;1678813;83;21884;-49
2022/10/24 02:09:02;;;;;;;3.47;1.00;;;;;;;11.90;100.00;99737.39;1684783;83;21041;-50
2022/10/24 02:11:29;;;;;;;2.33;1.05;;;;;;;11.89;100.00;99735.17;1680315;83;21562;-49
2022/10/24 02:14:01;;;;;;;4.20;0.98;;;;;;;11.91;100.00;99736.45;1685785;83;21805;-49
2022/10/24 02:16:28;;;;;;;3.12;0.90;;;;;;;11.91;100.00;99739.14;1682172;83;21660;-48
2022/10/24 02:18:55;;;;;;;2.80;1.12;;;;;;;11.90;100.00;99748.19;1656645;84;21894;-48
2022/10/24 02:21:43;;;;;;;5.17;1.30;;;;;;;11.86;100.00;99750.16;1653594;84;21064;-49
2022/10/24 02:24:26;;;;;;;4.28;1.50;;;;;;;11.85;100.00;99762.38;1642544;85;21063;-49
2022/10/24 02:26:58;;;;;;;2.22;1.00;;;;;;;11.81;100.00;99759.46;1706546;82;21523;-49
2022/10/24 02:29:51;;;;;;;2.77;1.15;;;;;;;11.79;100.00;99764.93;1692211;82;21410;-49
2022/10/24 02:32:23;;;;;;;2.05;1.10;;;;;;;11.78;100.00;99761.84;1713747;82;21833;-49
2022/10/24 02:34:49;;;;;;;3.33;1.35;;;;;;;11.76;100.00;99755.64;1699484;81;21550;-49
2022/10/24 02:37:16;;;;;;;3.83;1.10;;;;;;;11.74;100.00;99757.06;1704557;82;21554;-49
2022/10/24 02:39:42;;;;;;;2.72;1.67;;;;;;;11.72;100.00;99767.05;1709262;82;21106;-49
2022/10/24 02:42:10;;;;;;;1.20;1.10;;;;;;;11.70;100.00;99764.91;1696117;82;21061;-48
2022/10/24 02:44:36;;;;;;;2.62;1.02;;;;;;;11.69;100.00;99759.59;1649337;84;21836;-49
2022/10/24 02:47:04;;;;;;;1.60;1.00;;;;;;;11.68;100.00;99760.06;1669958;84;21573;-49
2022/10/24 02:49:31;;;;;;;2.72;1.15;;;;;;;11.66;100.00;99756.56;1704186;82;21081;-50
2022/10/24 02:51:57;;;;;;;2.30;1.02;;;;;;;11.66;100.00;99761.08;1694965;82;21708;-50
2022/10/24 02:54:24;;;;;;;3.37;1.00;;;;;;;11.65;100.00;99769.64;1647915;84;21069;-49
2022/10/24 02:56:59;;;;;;;2.80;1.10;;;;;;;11.65;100.00;99772.84;1669087;83;21845;-50
2022/10/24 02:59:25;;;;;;;3.87;1.45;;;;;;;11.65;100.00;99776.89;1667719;84;21624;-50
2022/10/24 03:01:53;;;;;;;2.10;1.20;;;;;;;11.65;100.00;99772.84;1701776;82;21079;-50
2022/10/24 03:04:19;;;;;;;1.70;1.30;;;;;;;11.64;100.00;99772.45;1700307;82;21076;-49
2022/10/24 03:06:48;;;;;;;3.50;1.10;;;;;;;11.63;100.00;99781.02;1700242;82;21516;-50
2022/10/24 03:09:14;;;;;;;2.25;1.20;;;;;;;11.64;100.00;99785.93;1700616;82;21803;-50
2022/10/24 03:11:41;;;;;;;1.50;1.05;;;;;;;11.64;100.00;99786.80;1694859;82;21606;-50
2022/10/24 03:14:09;;;;;;;1.67;1.02;;;;;;;11.64;100.00;99786.80;1700536;82;21397;-49
2022/10/24 03:16:37;;;;;;;3.37;1.32;;;;;;;11.65;100.00;99789.03;1700373;82;21642;-49
2022/10/24 03:19:03;;;;;;;4.35;1.50;;;;;;;11.66;100.00;99789.39;1710602;82;21137;-48
2022/10/24 03:21:30;;;;;;;5.28;1.70;;;;;;;11.66;100.00;99789.39;1701967;82;21817;-50
2022/10/24 03:23:56;;;;;;;1.47;1.00;;;;;;;11.67;100.00;99788.45;1704381;82;21993;-49
2022/10/24 03:26:24;;;;;;;7.75;1.95;;;;;;;11.70;100.00;99791.00;1702033;82;21458;-49
2022/10/24 03:28:51;;;;;;;3.72;1.40;;;;;;;11.70;100.00;99791.00;1702231;82;21057;-50
2022/10/24 03:31:17;;;;;;;2.15;1.70;;;;;;;11.71;100.00;99791.39;1699365;82;21057;-50
2022/10/24 03:33:46;;;;;;;3.87;1.72;;;;;;;11.71;100.00;99787.35;1704404;82;21117;-49
2022/10/24 03:36:13;;;;;;;3.65;1.47;;;;;;;11.71;100.00;99788.22;1699086;82;21050;-49
2022/10/24 03:38:40;;;;;;;5.87;1.20;;;;;;;11.73;100.00;99793.06;1700833;82;21367;-51
2022/10/24 03:41:06;;;;;;;3.70;1.57;;;;;;;11.74;100.00;99785.82;1704341;82;21062;-49
2022/10/24 03:43:33;;;;;;;2.60;1.40;;;;;;;11.74;100.00;99794.81;1706538;82;21072;-49
2022/10/24 03:45:59;;;;;;;2.33;1.65;;;;;;;11.75;100.00;99793.00;1677880;83;22671;-50
2022/10/24 03:48:26;;;;;;;2.12;1.85;;;;;;;11.76;100.00;99785.30;1674043;83;21520;-50
2022/10/24 03:50:52;;;;;;;3.27;2.20;;;;;;;11.77;100.00;99787.53;1676174;84;21135;-50
2022/10/24 03:53:19;;;;;;;2.95;1.55;;;;;;;11.74;100.00;99792.12;1671602;84;22000;-49
2022/10/24 03:55:45;;;;;;;4.55;2.05;;;;;;;11.74;100.00;99794.81;1708143;82;21527;-49
2022/10/24 03:58:12;;;;;;;3.30;1.85;;;;;;;11.74;100.00;99795.26;1703050;82;23176;-50
2022/10/24 04:00:40;;;;;;;4.95;1.55;;;;;;;11.74;100.00;99798.86;1700272;82;21066;-50
2022/10/24 04:03:06;;;;;;;3.02;1.92;;;;;;;11.75;100.00;99803.31;1705973;82;21464;-50
2022/10/24 04:05:33;;;;;;;2.95;2.27;;;;;;;11.74;100.00;99806.95;1704517;82;21067;-50
2022/10/24 04:08:01;;;;;;;5.00;1.77;;;;;;;11.75;100.00;99806.48;1698586;82;21084;-49
2022/10/24 04:10:29;;;;;;;3.90;2.58;;;;;;;11.75;100.00;99807.83;1695420;82;21156;-49
2022/10/24 04:12:56;;;;;;;4.15;2.05;;;;;;;11.74;100.00;99805.60;1699223;82;22276;-49
2022/10/24 04:15:22;;;;;;;5.35;2.90;;;;;;;11.77;100.00;99811.80;1707753;82;21054;-49
2022/10/24 04:17:50;;;;;;;5.78;2.67;;;;;;;11.78;100.00;99814.42;1702540;82;21139;-49
2022/10/24 04:20:19;;;;;;;2.50;1.95;;;;;;;11.79;100.00;99813.95;1668256;83;21047;-50
2022/10/24 04:22:46;;;;;;;3.62;2.25;;;;;;;11.78;100.00;99813.55;1668519;84;21763;-50
2022/10/24 04:25:13;;;;;;;6.90;2.25;;;;;;;11.78;100.00;99814.89;1670410;84;21047;-49
2022/10/24 04:27:39;;;;;;;3.30;2.20;;;;;;;11.79;100.00;99813.47;1667475;84;21011;-49
2022/10/24 04:30:12;;;;;;;4.65;2.12;;;;;;;11.81;100.00;99818.80;1663896;84;21074;-50
2022/10/24 04:32:39;;;;;;;6.83;2.12;;;;;;;11.81;100.00;99815.63;1666118;84;21353;-49
2022/10/24 04:35:06;;;;;;;4.55;2.83;;;;;;;11.83;100.00;99816.86;1670518;84;21863;-48
2022/10/24 04:37:33;;;;;;;5.67;2.27;;;;;;;11.84;100.00;99818.14;1666977;84;21074;-49
2022/10/24 04:39:59;;;;;;;4.35;1.90;;;;;;;11.86;100.00;99818.06;1664342;83;21155;-48
2022/10/24 04:42:26;;;;;;;3.92;2.17;;;;;;;11.87;100.00;99817.98;1666619;83;21284;-47
2022/10/24 04:44:52;;;;;;;5.50;2.55;;;;;;;11.90;100.00;99823.70;1665903;84;21102;-49
2022/10/24 04:47:18;;;;;;;4.28;2.65;;;;;;;11.90;100.00;99823.23;1663854;84;21830;-47
2022/10/24 04:49:45;;;;;;;5.78;1.95;;;;;;;11.90;100.00;99825.93;1666340;83;21055;-47
2022/10/24 04:52:12;;;;;;;3.92;3.05;;;;;;;11.90;100.00;99825.93;1666187;84;21119;-48
2022/10/24 04:54:39;;;;;;;3.15;2.65;;;;;;;11.93;100.00;99834.31;1661557;84;21086;-47
2022/10/24 04:57:06;;;;;;;6.92;2.37;;;;;;;11.94;100.00;99832.02;1667039;84;21082;-48
2022/10/24 04:59:32;;;;;;;3.95;2.72;;;;;;;11.94;100.00;99830.67;1658801;84;21758;-47
2022/10/24 05:01:58;;;;;;;3.02;2.50;;;;;;;11.96;100.00;99827.42;1657283;84;20985;-49
2022/10/24 05:04:25;;;;;;;5.05;2.87;;;;;;;11.97;100.00;99838.14;1663900;83;21062;-48
2022/10/24 05:06:52;;;;;;;7.12;2.65;;;;;;;11.97;100.00;99834.09;1663099;84;21082;-48
2022/10/24 05:09:18;;;;;;;3.65;2.33;;;;;;;11.98;100.00;99841.23;1660758;84;21101;-47
2022/10/24 05:11:45;;;;;;;8.50;3.55;;;;;;;12.00;100.00;99841.13;1662360;84;21920;-48
2022/10/24 05:14:13;;;;;;;5.08;2.92;;;;;;;12.02;100.00;99846.84;1632838;86;21097;-49
2022/10/24 05:16:39;;;;;;;5.53;3.42;;;;;;;12.02;100.00;99847.32;1659313;84;21576;-47
2022/10/24 05:19:05;;;;;;;4.12;2.35;;;;;;;12.02;100.00;99846.84;1678450;82;21109;-48
2022/10/24 05:21:32;;;;;;;3.25;2.80;;;;;;;12.04;100.00;99846.77;1687696;82;21053;-49
2022/10/24 05:23:59;;;;;;;3.95;3.22;;;;;;;12.05;100.00;99848.05;1671364;83;21638;-48
2022/10/24 05:26:25;;;;;;;7.05;3.95;;;;;;;12.07;100.00;99855.59;1677897;84;21641;-47
2022/10/24 05:28:52;;;;;;;3.40;3.05;;;;;;;12.08;100.00;99855.95;1671430;83;21049;-48
2022/10/24 05:32:58;;;;;;;7.13;4.93;;;;;;;12.11;100.00;99861.20;1793650;78;24688;-48
2022/10/24 05:35:24;;;;;;;5.00;4.10;;;;;;;12.15;100.00;99860.58;1770019;79;21077;-48
2022/10/24 05:37:51;;;;;;;6.67;4.58;;;;;;;12.15;100.00;99859.70;1771562;79;23213;-47
2022/10/24 05:40:17;;;;;;;12.40;3.90;;;;;;;12.15;100.00;99867.33;1716406;82;21093;-47
2022/10/24 05:42:44;;;;;;;7.50;5.25;;;;;;;12.16;100.00;99863.67;1714573;82;21109;-47
2022/10/24 05:45:10;;;;;;;5.45;4.40;;;;;;;12.16;100.00;99859.62;1712351;81;21151;-48
2022/10/24 05:47:37;;;;;;;4.50;4.05;;;;;;;12.16;100.00;99860.98;1710280;81;21073;-48
2022/10/24 05:50:05;;;;;;;5.75;4.97;;;;;;;12.15;100.00;99863.75;1718675;81;21737;-49
2022/10/24 05:52:35;;;;;;;5.17;4.30;;;;;;;12.15;100.00;99862.41;1722354;82;21381;-49
2022/10/24 05:55:00;;;;;;;5.72;4.70;;;;;;;12.16;100.00;99861.45;1719512;82;21025;-47
2022/10/24 05:57:28;;;;;;;8.30;4.62;;;;;;;12.17;100.00;99861.82;1721989;81;21561;-48
2022/10/24 05:59:55;;;;;;;9.23;5.45;;;;;;;12.17;100.00;99865.87;1723329;81;21093;-47
2022/10/24 06:02:22;;;;;;;6.00;4.40;;;;;;;12.19;100.00;99861.27;1719800;81;23457;-50
2022/10/24 06:04:49;;;;;;;7.22;5.33;;;;;;;12.22;100.00;99864.69;1716571;82;21725;-47
2022/10/24 06:07:17;;;;;;;8.90;5.50;;;;;;;12.26;100.00;99864.91;1720160;81;21208;-48
2022/10/24 06:09:44;;;;;;;9.65;6.72;;;;;;;12.30;100.00;99868.33;1722180;82;21562;-47
2022/10/24 06:12:11;;;;;;;5.87;4.90;;;;;;;12.34;100.00;99874.81;1739725;80;21073;-46
2022/10/24 06:14:39;;;;;;;8.95;5.83;;;;;;;12.38;100.00;99868.31;1725010;81;21117;-46
2022/10/24 06:17:08;;;;;;;11.48;6.42;;;;;;;12.42;100.00;99869.88;1722949;81;21759;-46
2022/10/24 06:19:35;;;;;;;8.85;5.47;;;;;;;12.44;100.00;99872.50;1722278;81;21533;-46
2022/10/24 06:22:03;;;;;;;5.85;5.20;;;;;;;12.46;100.00;99870.13;1747399;80;22080;-48
2022/10/24 06:24:30;;;;;;;7.50;6.62;;;;;;;12.47;100.00;99873.70;1724340;81;21061;-47
2022/10/24 06:26:56;;;;;;;6.78;5.45;;;;;;;12.50;100.00;99885.69;1726885;81;21947;-48
2022/10/24 06:29:23;;;;;;;7.15;5.50;;;;;;;12.51;100.00;99877.95;1725109;81;21214;-48
2022/10/24 06:31:50;;;;;;;7.28;5.60;;;;;;;12.54;100.00;99870.18;1713658;81;21078;-49
2022/10/24 06:34:16;;;;;;;8.78;5.95;;;;;;;12.56;100.00;99870.50;1705868;82;21661;-48
2022/10/24 06:36:42;;;;;;;5.90;5.22;;;;;;;12.59;100.00;99878.41;1742783;80;21078;-50
2022/10/24 06:39:09;;;;;;;8.38;6.35;;;;;;;12.60;100.00;99866.66;1741573;80;21825;-48
2022/10/24 06:41:35;;;;;;;7.05;5.75;;;;;;;12.62;100.00;99879.61;1740079;80;21048;-48
2022/10/24 06:44:02;;;;;;;10.05;7.78;;;;;;;12.64;100.00;99874.13;1739117;80;21600;-48
2022/10/24 06:46:28;;;;;;;7.37;6.60;;;;;;;12.66;100.00;99877.63;1735435;80;21148;-47
2022/10/24 06:48:56;;;;;;;6.53;5.85;;;;;;;12.68;100.00;99886.02;1741875;80;21026;-48
2022/10/24 06:51:23;;;;;;;8.58;6.35;;;;;;;12.71;100.00;99887.20;1740165;80;21473;-49
2022/10/24 06:53:49;;;;;;;7.12;6.17;;;;;;;12.74;100.00;99889.75;1740059;80;21202;-47
2022/10/24 06:56:17;;;;;;;7.10;6.17;;;;;;;12.77;100.00;99893.61;1737092;80;21693;-47
2022/10/24 06:58:44;;;;;;;8.80;5.42;;;;;;;12.80;100.00;99896.16;1742830;80;21594;-47
2022/10/24 07:01:18;;;;;;;7.33;5.80;;;;;;;12.84;100.00;99895.53;1743250;80;21049;-47
2022/10/24 07:03:44;;;;;;;6.67;5.67;;;;;;;12.87;100.00;99894.86;1742233;80;22600;-48
2022/10/24 07:06:21;;;;;;;6.10;5.03;;;;;;;12.92;100.00;99900.02;1739881;80;21488;-48
2022/10/24 07:08:50;;;;;;;6.80;6.20;;;;;;;12.95;100.00;99894.91;1738086;80;21030;-49
2022/10/24 07:11:16;;;;;;;6.90;5.08;;;;;;;12.99;100.00;99894.67;1741863;80;21103;-46
2022/10/24 07:13:42;;;;;;;9.58;5.55;;;;;;;13.03;100.00;99908.38;1705895;82;21148;-47
2022/10/24 07:16:10;;;;;;;8.28;6.62;;;;;;;13.05;100.00;99903.77;1740341;80;21825;-48
2022/10/24 07:18:38;;;;;;;5.95;5.35;;;;;;;13.08;100.00;99906.80;1737660;80;21045;-47
2022/10/24 07:21:18;;;;;;;7.50;5.58;;;;;;;13.10;100.00;99915.19;1740159;80;21540;-50
2022/10/24 07:23:44;;;;;;;8.73;6.37;;;;;;;13.11;100.00;99912.88;1741519;80;22157;-48
2022/10/24 07:26:18;;;;;;;6.67;5.80;;;;;;;13.14;100.00;99902.42;1706686;82;21077;-47
2022/10/24 07:28:43;;;;;;;8.10;5.85;;;;;;;13.15;100.00;99902.81;1739862;80;21840;-47
2022/10/24 07:31:12;;;;;;;12.05;6.42;;;;;;;13.16;100.00;99897.33;1742179;80;21254;-49
2022/10/24 07:33:38;;;;;;;10.45;6.58;;;;;;;13.19;100.00;99900.31;1735868;80;21554;-49
2022/10/24 07:36:06;;;;;;;10.10;6.67;;;;;;;13.20;100.00;99899.36;1737383;80;21073;-47
2022/10/24 07:38:33;;;;;;;7.92;6.37;;;;;;;13.22;100.00;99898.33;1740465;80;21184;-47
2022/10/24 07:41:05;;;;;;;10.30;6.08;;;;;;;13.24;100.00;99899.12;1735597;80;21499;-51
2022/10/24 07:43:31;;;;;;;18.02;7.85;;;;;;;13.28;100.00;99903.85;1734742;80;21038;-47
2022/10/24 07:45:58;;;;;;;10.53;6.17;;;;;;;13.31;100.00;99902.81;1702934;82;21499;-49
2022/10/24 07:48:26;;;;;;;6.87;6.22;;;;;;;13.35;100.00;99898.99;1672303;83;21089;-48
2022/10/24 07:50:53;;;;;;;7.60;5.67;;;;;;;13.36;100.00;99900.23;1702952;82;21038;-49
2022/10/24 07:53:19;;;;;;;5.72;5.03;;;;;;;13.40;100.00;99900.46;1679725;83;21846;-48
2022/10/24 07:55:47;;;;;;;7.65;6.20;;;;;;;13.45;100.00;99901.05;1736673;80;21076;-48
2022/10/24 07:58:14;;;;;;;5.47;4.70;;;;;;;13.47;100.00;99900.50;1739489;80;21038;-48
2022/10/24 08:00:40;;;;;;;7.92;5.00;;;;;;;13.50;100.00;99900.33;1735967;80;21104;-50
2022/10/24 08:03:07;;;;;;;7.62;4.72;;;;;;;13.53;100.00;99899.25;1738378;80;21633;-48
2022/10/24 08:05:39;;;;;;;6.60;5.25;;;;;;;13.55;100.00;99903.63;1738984;80;21093;-47
2022/10/24 08:08:06;;;;;;;8.35;5.65;;;;;;;13.57;100.00;99899.48;1734862;80;21025;-48
2022/10/24 08:10:33;;;;;;;7.20;6.17;;;;;;;13.60;100.00;99901.55;1741519;80;21107;-48
2022/10/24 08:13:01;;;;;;;10.15;6.12;;;;;;;13.61;100.00;99899.20;1740106;80;21521;-50
2022/10/24 08:16:54;;;;;;;7.30;6.60;;;;;;;13.64;100.00;99898.16;1789421;78;27265;-46
2022/10/24 08:19:20;;;;;;;8.80;7.08;;;;;;;13.65;100.00;99910.73;1766447;79;21072;-48
2022/10/24 08:21:49;;;;;;;10.50;7.30;;;;;;;13.66;100.00;99906.19;1745962;80;21186;-47
2022/10/24 08:24:15;;;;;;;8.80;5.50;;;;;;;13.66;100.00;99904.84;1712632;81;21760;-50
2022/10/24 08:26:42;;;;;;;8.80;5.75;;;;;;;13.66;100.00;99900.78;1706295;82;21143;-49
2022/10/24 08:29:14;;;;;;;6.47;5.70;;;;;;;13.63;100.00;99894.58;1713076;81;21086;-47
2022/10/24 08:31:39;;;;;;;8.93;4.92;;;;;;;13.60;100.00;99892.08;1714229;81;21565;-48
2022/10/24 08:34:05;;;;;;;6.22;4.92;;;;;;;13.63;100.00;99902.70;1710370;81;21860;-49
2022/10/24 08:36:34;;;;;;;6.47;5.08;;;;;;;13.67;100.00;99903.88;1737618;81;21294;-47
2022/10/24 08:39:01;;;;;;;6.97;5.70;;;;;;;13.69;100.00;99896.56;1706383;81;21109;-48
2022/10/24 08:41:38;;;;;;;8.10;5.08;;;;;;;13.73;100.00;99899.45;1694672;82;21049;-47
2022/10/24 08:44:28;;;;;;;8.10;5.45;;;;;;;13.75;100.00;99899.77;1697962;82;21106;-47
2022/10/24 08:47:27;;;;;;;7.37;5.28;;;;;;;13.78;100.00;99904.14;1668519;82;21850;-49
2022/10/24 08:50:18;;;;;;;6.33;4.85;;;;;;;13.81;100.00;99907.99;1714216;81;21450;-48
2022/10/24 08:52:48;;;;;;;4.08;3.65;;;;;;;13.82;100.00;99904.33;1691655;83;21162;-47
2022/10/24 08:55:24;;;;;;;6.97;4.05;;;;;;;13.84;100.00;99909.17;1694054;82;21073;-48
2022/10/24 08:57:53;;;;;;;4.03;3.72;;;;;;;13.84;100.00;99901.06;1694383;82;21065;-48
2022/10/24 09:00:26;;;;;;;6.10;5.30;;;;;;;13.84;100.00;99907.82;1695748;82;22203;-50
2022/10/24 09:03:01;;;;;;;7.00;5.22;;;;;;;13.82;100.00;99901.14;1688894;83;21083;-49
2022/10/24 09:05:32;;;;;;;8.00;5.80;;;;;;;13.82;100.00;99911.09;1689677;83;21072;-47
2022/10/24 09:08:03;;;;;;;6.00;4.03;;;;;;;13.81;100.00;99913.41;1689340;83;21090;-48
2022/10/24 09:10:41;;;;;;;5.70;4.08;;;;;;;13.79;100.00;99903.14;1689323;82;21128;-48
2022/10/24 09:13:15;;;;;;;4.45;4.05;;;;;;;13.78;100.00;99914.95;1648697;83;21363;-49
2022/10/24 09:15:44;;;;;;;4.25;3.90;;;;;;;13.79;100.00;99919.38;1708822;82;21077;-47
2022/10/24 09:18:17;;;;;;;6.35;4.25;;;;;;;13.79;100.00;99921.60;1695099;82;21607;-47
2022/10/24 09:20:43;;;;;;;6.55;3.45;;;;;;;13.79;100.00;99914.84;1694919;82;21046;-48
2022/10/24 09:23:10;;;;;;;3.35;3.10;;;;;;;13.81;100.00;99917.46;1733962;80;21030;-47
2022/10/24 09:25:36;;;;;;;7.33;2.90;;;;;;;13.81;100.00;99920.17;1732503;80;21242;-49
2022/10/24 09:28:03;;;;;;;4.80;3.30;;;;;;;13.81;100.00;99922.39;1736498;80;21089;-46
2022/10/24 09:30:30;;;;;;;5.67;2.98;;;;;;;13.81;100.00;99921.52;1732271;80;21041;-48
2022/10/24 09:32:59;;;;;;;6.95;2.83;;;;;;;13.80;100.00;99919.77;1737945;80;21074;-49
2022/10/24 09:35:28;;;;;;;3.20;3.00;;;;;;;13.80;100.00;99921.12;1734860;80;21499;-47
2022/10/24 09:37:58;;;;;;;5.00;2.50;;;;;;;13.83;100.00;99912.36;1737887;80;21710;-48
2022/10/24 09:40:32;;;;;;;2.58;2.12;;;;;;;13.84;100.00;99915.94;1713269;81;22323;-48
2022/10/24 09:43:16;;;;;;;3.60;2.60;;;;;;;13.87;100.00;99913.91;1736387;80;21178;-48
2022/10/24 09:45:50;;;;;;;2.52;2.33;;;;;;;13.90;100.00;99906.97;1733754;80;21101;-51
2022/10/24 09:48:26;;;;;;;3.55;1.95;;;;;;;13.93;100.00;99905.45;1734986;80;21014;-49
2022/10/24 09:50:52;;;;;;;2.52;2.17;;;;;;;13.96;100.00;99911.14;1733952;81;21785;-49
2022/10/24 09:55:30;;;;;;;3.62;2.27;;;;;;;14.00;100.00;99905.95;1793287;78;27256;-49
2022/10/24 09:58:02;;;;;;;3.77;3.20;;;;;;;14.00;100.00;99920.83;1765266;79;21080;-48
2022/10/24 10:00:29;;;;;;;6.10;3.60;;;;;;;13.98;100.00;99929.03;1767670;78;21928;-47
2022/10/24 10:03:15;;;;;;;4.08;3.67;;;;;;;13.97;100.00;99934.53;1763890;78;22290;-47
2022/10/24 10:05:48;;;;;;;3.15;2.83;;;;;;;13.95;100.00;99927.02;1762870;78;21068;-48
2022/10/24 10:08:21;;;;;;;3.47;3.27;;;;;;;13.91;100.00;99924.08;1764125;79;21405;-48
2022/10/24 10:11:01;;;;;;;6.47;3.22;;;;;;;13.90;100.00;99927.75;1768285;78;21155;-49
2022/10/24 10:13:28;;;;;;;3.27;3.08;;;;;;;13.91;100.00;99924.08;1768202;79;21864;-49
2022/10/24 10:15:59;;;;;;;4.03;3.55;;;;;;;13.93;100.00;99928.92;1764403;79;21056;-47
2022/10/24 10:18:42;;;;;;;3.17;2.87;;;;;;;13.92;100.00;99926.70;1766514;78;21053;-48
2022/10/24 10:21:18;;;;;;;6.15;3.58;;;;;;;13.95;100.00;99919.73;1764094;78;21100;-49
2022/10/24 10:23:49;;;;;;;6.17;3.25;;;;;;;13.98;100.00;99920.05;1763999;79;21075;-48
2022/10/24 10:26:27;;;;;;;3.95;3.25;;;;;;;14.00;100.00;99922.19;1765251;78;21932;-49
2022/10/24 10:28:58;;;;;;;6.90;5.15;;;;;;;14.02;100.00;99916.20;1768565;79;21246;-49
2022/10/24 10:31:39;;;;;;;5.20;3.65;;;;;;;14.02;100.00;99916.20;1765464;78;21068;-49
2022/10/24 10:34:24;;;;;;;7.33;4.70;;;;;;;14.03;100.00;99918.80;1765562;79;21171;-50
2022/10/24 10:37:27;;;;;;;5.35;4.45;;;;;;;14.04;100.00;99918.31;1759457;78;21069;-48
2022/10/24 10:40:27;;;;;;;5.17;4.00;;;;;;;14.05;100.00;99910.59;1741717;79;21844;-48
2022/10/24 10:43:19;;;;;;;4.58;3.42;;;;;;;14.09;100.00;99913.52;1736873;79;21041;-48
2022/10/24 10:46:18;;;;;;;7.37;4.22;;;;;;;14.12;100.00;99897.07;1727330;79;21056;-50
2022/10/24 10:49:13;;;;;;;3.45;3.02;;;;;;;14.13;100.00;99900.17;1739650;79;21068;-47
2022/10/24 10:52:14;;;;;;;3.47;3.12;;;;;;;14.13;100.00;99906.94;1678412;79;21620;-48
2022/10/24 10:54:52;;;;;;;4.30;3.45;;;;;;;14.13;100.00;99903.36;1725160;79;21958;-46
2022/10/24 10:57:21;;;;;;;3.08;2.75;;;;;;;14.13;100.00;99909.64;1730782;80;21077;-48
2022/10/24 11:00:11;;;;;;;4.12;3.80;;;;;;;14.13;100.00;99909.64;1717888;80;21535;-49
2022/10/24 11:02:58;;;;;;;2.65;2.45;;;;;;;14.15;100.00;99911.78;1724407;80;21046;-49
2022/10/24 11:05:43;;;;;;;2.52;2.20;;;;;;;14.15;100.00;99905.02;1726410;80;21523;-48
2022/10/24 11:08:25;;;;;;;4.30;3.17;;;;;;;14.15;100.00;99900.08;1722480;80;21882;-49
2022/10/24 11:11:00;;;;;;;2.77;2.05;;;;;;;14.13;100.00;99900.65;1716889;80;21495;-49
2022/10/24 11:13:32;;;;;;;2.85;2.65;;;;;;;14.12;100.00;99902.48;1727076;80;21500;-49
2022/10/24 11:16:01;;;;;;;2.17;1.75;;;;;;;14.12;100.00;99894.87;1721842;80;21065;-48
2022/10/24 11:18:37;;;;;;;6.58;2.72;;;;;;;14.15;100.00;99902.31;1723354;80;21544;-49
2022/10/24 11:21:09;;;;;;;6.33;3.40;;;;;;;14.17;100.00;99890.91;1722154;80;21961;-49
2022/10/24 11:24:11;;;;;;;4.67;3.33;;;;;;;14.20;100.00;99893.93;1722410;80;21503;-48
2022/10/24 11:26:55;;;;;;;4.25;3.77;;;;;;;14.23;100.00;99901.84;1724936;80;21491;-49
2022/10/24 11:29:46;;;;;;;3.83;3.45;;;;;;;14.23;100.00;99893.23;1719626;80;21065;-45
2022/10/24 11:32:40;;;;;;;9.30;3.20;;;;;;;14.23;100.00;99894.59;1721920;80;21100;-47
2022/10/24 11:35:31;;;;;;;4.50;3.70;;;;;;;14.21;100.00;99900.58;1729123;80;21832;-47
2022/10/24 11:38:16;;;;;;;4.58;3.15;;;;;;;14.20;100.00;99902.92;1720456;80;20983;-49
2022/10/24 11:40:43;;;;;;;3.98;3.60;;;;;;;14.20;100.00;99892.09;1728146;80;21041;-47
2022/10/24 11:43:32;;;;;;;2.80;2.60;;;;;;;14.23;100.00;99896.43;1722200;80;21057;-50
2022/10/24 11:46:15;;;;;;;4.83;2.87;;;;;;;14.25;100.00;99890.45;1720396;80;21071;-49
2022/10/24 11:48:47;;;;;;;2.67;2.47;;;;;;;14.29;100.00;99891.50;1733700;80;21983;-47
2022/10/24 11:51:24;;;;;;;3.50;2.92;;;;;;;14.35;100.00;99891.63;1720435;80;21543;-48